Home > Products > Valid Products > MTR

000
SAUS45 KREV 272057
MTRDRA
METAR KDRA 272052Z AUTO VRB05KT 10SM CLR 32/M02 A3011 RMK AO2 SLP145
T03221017 57014





000
SAUS45 KREV 271957
MTRDRA
METAR KDRA 271952Z AUTO VRB04KT 10SM CLR 32/M01 A3012 RMK AO2 SLP150
T03221006





000
SAUS45 KREV 271857
MTRDRA
METAR KDRA 271852Z AUTO 13007KT 10SM CLR 31/01 A3014 RMK AO2 SLP156
T03060006





000
SAUS45 KREV 271757
MTRDRA
METAR KDRA 271752Z AUTO 17006KT 10SM CLR 29/01 A3015 RMK AO2 SLP163
T02940011 10294 20172 51005





000
SAUS45 KREV 271657
MTRDRA
METAR KDRA 271652Z AUTO 13007KT 10SM CLR 27/01 A3015 RMK AO2 SLP165
T02720011





000
SAUS45 KREV 271556
MTRDRA
METAR KDRA 271552Z AUTO VRB03KT 10SM CLR 26/02 A3015 RMK AO2 SLP163
T02610017





000
SAUS45 KREV 271457
MTRDRA
METAR KDRA 271452Z AUTO 08003KT 10SM CLR 24/01 A3014 RMK AO2 SLP159
T02390006 51014





000
SAUS45 KREV 271358
MTRDRA
METAR KDRA 271352Z AUTO 10004KT 10SM CLR 20/02 A3012 RMK AO2 SLP157
T02000017





000
SAUS45 KREV 271257
MTRDRA
METAR KDRA 271252Z AUTO 09005KT 10SM CLR 18/M01 A3011 RMK AO2 SLP152
T01781011





000
SAUS45 KREV 271158
MTRDRA
METAR KDRA 271152Z AUTO 06003KT 10SM CLR 19/02 A3009 RMK AO2 SLP144
T01890017 10250 20189 53009





000
SAUS45 KREV 271057
MTRDRA
METAR KDRA 271052Z AUTO 00000KT 10SM CLR 22/02 A3008 RMK AO2 SLP138
T02170017





000
SAUS45 KREV 270957
MTRDRA
METAR KDRA 270952Z AUTO 04004KT 10SM CLR 21/M02 A3007 RMK AO2 SLP135
T02061022





000
SAUS45 KREV 270857
MTRDRA
METAR KDRA 270852Z AUTO 05005KT 10SM CLR 23/02 A3006 RMK AO2 SLP129
T02330017 51010





000
SAUS45 KREV 270757
MTRDRA
METAR KDRA 270752Z AUTO 36007KT 10SM CLR 24/01 A3005 RMK AO2 SLP125
T02390011 403220228





000
SAUS45 KREV 270657
MTRDRA
METAR KDRA 270652Z AUTO 04010KT 10SM CLR 24/01 A3004 RMK AO2 SLP123
T02440006





000
SAUS45 KREV 270557
MTRDRA
METAR KDRA 270552Z AUTO 03010KT 10SM CLR 25/M01 A3003 RMK AO2 SLP120
T02501006 10317 20228 51017





000
SAUS45 KREV 270457
MTRDRA
METAR KDRA 270452Z AUTO 03005KT 10SM CLR 24/M03 A3001 RMK AO2 SLP116
T02391028





000
SAUS45 KREV 270357
MTRDRA
METAR KDRA 270352Z AUTO 10004KT 10SM CLR 25/M03 A3000 RMK AO2 SLP111
T02501028





000
SAUS45 KREV 270257
MTRDRA
METAR KDRA 270252Z AUTO 27004KT 10SM CLR 27/M03 A2997 RMK AO2 SLP103
T02721033 53002





000
SAUS45 KREV 270157
MTRDRA
METAR KDRA 270152Z AUTO 22008KT 10SM CLR 30/M04 A2996 RMK AO2 SLP097
T03001039





000
SAUS45 KREV 270057
MTRDRA
METAR KDRA 270052Z AUTO 26007KT 10SM CLR 31/M05 A2996 RMK AO2 SLP095
T03111050





000
SAUS45 KREV 262357
MTRDRA
METAR KDRA 262352Z AUTO 28008G17KT 10SM CLR 32/M05 A2996 RMK AO2
SLP095 T03171050 10322 20283 56010





000
SAUS45 KREV 262257
MTRDRA
METAR KDRA 262252Z AUTO 25010G20KT 10SM CLR 32/M05 A2997 RMK AO2
SLP097 T03171050





000
SAUS45 KREV 262157
MTRDRA
METAR KDRA 262152Z AUTO 21011G21KT 10SM CLR 31/M03 A2998 RMK AO2
SLP101 T03111033 $





000
SAUS45 KREV 262057
MTRDRA
METAR KDRA 262052Z AUTO 20012G21KT 10SM CLR 32/M04 A3000 RMK AO2
SLP106 T03171044 58013 $





000
SAUS45 KREV 261957
MTRDRA
METAR KDRA 261952Z AUTO 22015G21KT 10SM CLR 31/M01 A3001 RMK AO2
SLP111 T03111011 $





000
SAUS45 KREV 261857
MTRDRA
METAR KDRA 261852Z AUTO 21011G21KT CLR 29/M03 A3002 RMK AO2 SLP117
T02941028 $





000
SAUS45 KREV 261757
MTRDRA
METAR KDRA 261752Z AUTO 24014G19KT CLR 28/M02 A3004 RMK AO2 SLP123
T02831017 10289 20228 53007 $





000
SAUS45 KREV 261657
MTRDRA
METAR KDRA 261652Z AUTO 22012G19KT CLR 28/01 A3003 RMK AO2 SLP119
T02780011





000
SAUS45 KREV 261557
MTRDRA
METAR KDRA 261552Z AUTO 21011KT CLR 26/03 A3002 RMK AO2 SLP116
T02610028





000
SAUS45 KREV 261457
MTRDRA
METAR KDRA 261452Z AUTO 23009KT CLR 24/07 A3001 RMK AO2 SLP115
T02390067 53019





000
SAUS45 KREV 261256
MTRDRA
METAR KDRA 261252Z AUTO 18009KT CLR 23/04 A2997 RMK AO2 SLP098
T02330044 $





000
SAUS45 KREV 261157
MTRDRA
METAR KDRA 261152Z AUTO 18012KT 10SM CLR 24/03 A2995 RMK AO2 SLP090
T02440033 10267 20233 52013





000
SAUS45 KREV 261057
MTRDRA
METAR KDRA 261052Z AUTO VRB03KT 10SM CLR 25/01 A2994 RMK AO2 SLP085
T02500011





000
SAUS45 KREV 260957
MTRDRA
METAR KDRA 260952Z AUTO 25007KT 10SM CLR 24/04 A2992 RMK AO2 SLP080
T02440044





000
SAUS45 KREV 260857
MTRDRA
METAR KDRA 260852Z AUTO 23013KT 10SM CLR 25/04 A2991 RMK AO2 SLP075
T02500044 50003





000
SAUS45 KREV 260757
MTRDRA
METAR KDRA 260752Z AUTO 22010KT 10SM CLR 26/03 A2992 RMK AO2 SLP078
T02560033 403390211





000
SAUS45 KREV 260657
MTRDRA
METAR KDRA 260652Z AUTO 23013KT 10SM CLR 26/03 A2991 RMK AO2 SLP077
T02610028





000
SAUS45 KREV 260557
MTRDRA
METAR KDRA 260552Z AUTO 24013KT 10SM CLR 26/03 A2990 RMK AO2 SLP073
T02610028 10328 20261 51017





000
SAUS45 KREV 260457
MTRDRA
METAR KDRA 260452Z AUTO 22012KT 10SM CLR 27/02 A2989 RMK AO2 SLP070
T02720022





000
SAUS45 KREV 260357
MTRDRA
METAR KDRA 260352Z AUTO 19009KT 10SM CLR 28/00 A2987 RMK AO2 SLP063
T02830000





000
SAUS45 KREV 260257
MTRDRA
METAR KDRA 260252Z AUTO 20017KT 10SM CLR 29/M01 A2985 RMK AO2 SLP054
T02941011 53004





000
SAUS45 KREV 260157
MTRDRA
METAR KDRA 260152Z AUTO 19015G22KT 10SM CLR 31/M02 A2983 RMK AO2 PK
WND 18029/0109 SLP051 T03111017





000
SAUS45 KREV 260057
MTRDRA
METAR KDRA 260052Z AUTO 19017G22KT 10SM CLR 32/M04 A2983 RMK AO2 PK
WND 18029/2354 SLP047 T03221039





000
SAUS45 KREV 252357
MTRDRA
METAR KDRA 252352Z AUTO 18017G27KT 10SM CLR 33/M07 A2983 RMK AO2 PK
WND 19031/2329 SLP050 T03281072 10339 20306 57005





000
SAUS45 KREV 252257
MTRDRA
METAR KDRA 252252Z AUTO 19018G28KT 10SM CLR 34/M07 A2984 RMK AO2 PK
WND 22037/2235 SLP049 T03391067





000
SAUS45 KREV 252157
MTRDRA
METAR KDRA 252152Z AUTO 22025G32KT 10SM CLR 33/M06 A2984 RMK AO2 PK
WND 23039/2059 SLP050 T03331061





000
SAUS45 KREV 252057
MTRDRA
METAR KDRA 252052Z AUTO 21022G37KT 10SM CLR 33/M08 A2985 RMK AO2 PK
WND 21037/2044 SLP052 T03331083 58011





000
SAUS45 KREV 251957
MTRDRA
METAR KDRA 251952Z AUTO 20024G35KT 10SM CLR 32/M06 A2986 RMK AO2 PK
WND 21039/1925 SLP058 T03221061





000
SAUS45 KREV 251857
MTRDRA
METAR KDRA 251852Z AUTO 21024G33KT 10SM CLR 32/M07 A2988 RMK AO2 PK
WND 22035/1759 SLP064 T03171067





000
SAUS45 KREV 251757
MTRDRA
METAR KDRA 251752Z AUTO 21022G36KT 10SM CLR 31/M09 A2988 RMK AO2 PK
WND 20036/1748 SLP067 T03061089 10306 20211 50003





000
SAUS45 KREV 251657
MTRDRA
METAR KDRA 251652Z AUTO 22019G26KT 10SM CLR 29/M05 A2989 RMK AO2 PK
WND 21026/1642 SLP068 T02941050





000
SAUS45 KREV 251556
MTRDRA
METAR KDRA 251552Z AUTO 22016KT 10SM CLR 28/M03 A2988 RMK AO2 SLP065
T02781028





000
SAUS45 KREV 251457
MTRDRA
METAR KDRA 251452Z AUTO 20013KT 10SM CLR 27/M04 A2988 RMK AO2 SLP064
T02721044 51009





000
SAUS45 KREV 251257
MTRDRA
METAR KDRA 251252Z AUTO 20013G18KT 10SM CLR 24/M03 A2986 RMK AO2
SLP057 T02441033





000
SAUS45 KREV 251157
MTRDRA
METAR KDRA 251152Z AUTO 14005KT 10SM CLR 23/M03 A2985 RMK AO2 SLP054
T02331028 10283 20222 56006





000
SAUS45 KREV 251057
MTRDRA
METAR KDRA 251052Z AUTO 23012G18KT 10SM CLR 26/M03 A2985 RMK AO2
SLP052 T02561033





000
SAUS45 KREV 250957
MTRDRA
METAR KDRA 250952Z AUTO 21014KT 10SM CLR 27/M04 A2985 RMK AO2 SLP052
T02671039





000
SAUS45 KREV 250857
MTRDRA
METAR KDRA 250852Z AUTO 20012KT 10SM CLR 27/M04 A2986 RMK AO2 SLP056
T02671044 50004





000
SAUS45 KREV 250757
MTRDRA
METAR KDRA 250752Z AUTO 22016KT 10SM CLR 27/M03 A2987 RMK AO2 SLP057
T02721028 403500172





000
SAUS45 KREV 250656
MTRDRA
METAR KDRA 250652Z AUTO 25009KT 10SM CLR 26/M03 A2987 RMK AO2 SLP059
T02611028





000
SAUS45 KREV 250557
MTRDRA
METAR KDRA 250552Z AUTO 16005KT 10SM CLR 27/M03 A2985 RMK AO2 SLP055
T02721028 10339 20256 50009





000
SAUS45 KREV 250457
MTRDRA
METAR KDRA 250452Z AUTO 14003KT 10SM CLR 27/M06 A2985 RMK AO2 SLP057
T02671056





000
SAUS45 KREV 250357
MTRDRA
METAR KDRA 250352Z AUTO 20015KT 10SM CLR 29/M07 A2984 RMK AO2 SLP053
T02941072





000
SAUS45 KREV 250257
MTRDRA
METAR KDRA 250252Z AUTO 22011KT 10SM CLR 29/M07 A2982 RMK AO2 SLP051
T02891072 55000





000
SAUS45 KREV 250157
MTRDRA
METAR KDRA 250152Z AUTO 22013KT 10SM CLR 31/M07 A2982 RMK AO2 SLP050
T03111072





000
SAUS45 KREV 250057
MTRDRA
METAR KDRA 250052Z AUTO 20018G22KT 10SM CLR 33/M07 A2982 RMK AO2
SLP048 T03281067





000
SAUS45 KREV 242357
MTRDRA
METAR KDRA 242352Z AUTO 21012G24KT 10SM CLR 33/M07 A2982 RMK AO2 PK
WND 23027/2335 SLP049 T03331067 10350 20300 56014





000
SAUS45 KREV 242257
MTRDRA
METAR KDRA 242252Z AUTO 21015G22KT 10SM CLR 34/M07 A2983 RMK AO2 PK
WND 21029/2209 SLP053 T03441072





000
SAUS45 KREV 242157
MTRDRA
METAR KDRA 242152Z AUTO 22022G30KT 10SM CLR 34/M02 A2984 RMK AO2 PK
WND 19030/2152 SLP054 T03441022





    US Dept of Commerce
    National Oceanic and Atmospheric Administration
    National Weather Service
    1325 East West Highway
    Silver Spring, MD 20910
    Page Author: NWS Internet Services Team
Disclaimer
Information Quality
Credits
Glossary
Privacy Policy
Freedom of Information Act (FOIA)
About Us
Career Opportunities